sensor_id;sensor_type;location;lat;lon;timestamp;pressure;altitude;pressure_sealevel;temperature;humidity
45113;BME280;30873;53.908;27.576;2022-07-23T00:03:53;1017.5;;;22.7;55.1
45113;BME280;30873;53.908;27.576;2022-07-23T00:08:53;1017.5;;;22.7;54.7
45113;BME280;30873;53.908;27.576;2022-07-23T00:13:52;1017.5;;;22.7;54.8
45113;BME280;30873;53.908;27.576;2022-07-23T00:18:52;1017.6;;;22.7;54.2
45113;BME280;30873;53.908;27.576;2022-07-23T00:23:52;1017.6;;;22.7;54
45113;BME280;30873;53.908;27.576;2022-07-23T00:28:52;1017.6;;;22.7;54.1
45113;BME280;30873;53.908;27.576;2022-07-23T00:33:52;1017.6;;;22.6;54.1
45113;BME280;30873;53.908;27.576;2022-07-23T00:38:53;1017.6;;;22.6;54.3
45113;BME280;30873;53.908;27.576;2022-07-23T00:43:52;1017.6;;;22.6;54.5
45113;BME280;30873;53.908;27.576;2022-07-23T00:48:52;1017.6;;;22.5;54.3
45113;BME280;30873;53.908;27.576;2022-07-23T00:53:52;1017.6;;;22.5;54.4
45113;BME280;30873;53.908;27.576;2022-07-23T00:58:52;1017.6;;;22.4;54.5
45113;BME280;30873;53.908;27.576;2022-07-23T01:03:52;1017.6;;;22.4;54.8
45113;BME280;30873;53.908;27.576;2022-07-23T01:08:53;1017.6;;;22.3;55
45113;BME280;30873;53.908;27.576;2022-07-23T01:13:52;1017.6;;;22.3;55.2
45113;BME280;30873;53.908;27.576;2022-07-23T01:18:52;1017.6;;;22.2;55.5
45113;BME280;30873;53.908;27.576;2022-07-23T01:23:52;1017.5;;;22.2;55.7
45113;BME280;30873;53.908;27.576;2022-07-23T01:28:52;1017.5;;;22.1;55.9
45113;BME280;30873;53.908;27.576;2022-07-23T01:33:52;1017.5;;;22.1;55.9
45113;BME280;30873;53.908;27.576;2022-07-23T01:38:52;1017.5;;;22.1;56
45113;BME280;30873;53.908;27.576;2022-07-23T01:43:52;1017.5;;;22;56.2
45113;BME280;30873;53.908;27.576;2022-07-23T01:48:52;1017.4;;;21.9;56.5
45113;BME280;30873;53.908;27.576;2022-07-23T01:53:52;1017.4;;;21.8;56.8
45113;BME280;30873;53.908;27.576;2022-07-23T01:58:52;1017.4;;;21.8;56.9
45113;BME280;30873;53.908;27.576;2022-07-23T02:03:52;1017.4;;;21.8;56.9
45113;BME280;30873;53.908;27.576;2022-07-23T02:08:52;1017.3;;;21.7;57
45113;BME280;30873;53.908;27.576;2022-07-23T02:13:52;1017.4;;;21.7;57
45113;BME280;30873;53.908;27.576;2022-07-23T02:18:52;1017.4;;;21.8;56.9
45113;BME280;30873;53.908;27.576;2022-07-23T02:23:52;1017.4;;;21.8;56.9
45113;BME280;30873;53.908;27.576;2022-07-23T02:28:52;1017.4;;;21.8;56.9
45113;BME280;30873;53.908;27.576;2022-07-23T02:33:53;1017.4;;;21.8;56.8
45113;BME280;30873;53.908;27.576;2022-07-23T02:38:53;1017.3;;;21.8;56.9
45113;BME280;30873;53.908;27.576;2022-07-23T02:43:52;1017.3;;;21.8;56.6
45113;BME280;30873;53.908;27.576;2022-07-23T02:48:52;1017.3;;;21.9;56.4
45113;BME280;30873;53.908;27.576;2022-07-23T02:53:52;1017.3;;;21.9;56.2
45113;BME280;30873;53.908;27.576;2022-07-23T02:58:53;1017.3;;;21.9;56.2
45113;BME280;30873;53.908;27.576;2022-07-23T03:03:52;1017.3;;;21.9;56.2
45113;BME280;30873;53.908;27.576;2022-07-23T03:08:53;1017.4;;;22;56.1
45113;BME280;30873;53.908;27.576;2022-07-23T03:13:52;1017.3;;;22.1;55.9
45113;BME280;30873;53.908;27.576;2022-07-23T03:18:52;1017.3;;;22.2;55.5
45113;BME280;30873;53.908;27.576;2022-07-23T03:23:52;1017.4;;;22.3;55.2
45113;BME280;30873;53.908;27.576;2022-07-23T03:28:52;1017.4;;;22.4;54.8
45113;BME280;30873;53.908;27.576;2022-07-23T03:33:52;1017.3;;;22.5;54.5
45113;BME280;30873;53.908;27.576;2022-07-23T03:38:53;1017.3;;;22.5;54.2
45113;BME280;30873;53.908;27.576;2022-07-23T03:43:52;1017.3;;;22.6;54.1
45113;BME280;30873;53.908;27.576;2022-07-23T03:48:52;1017.2;;;22.7;53.8
45113;BME280;30873;53.908;27.576;2022-07-23T03:53:52;1017.2;;;22.7;53.7
45113;BME280;30873;53.908;27.576;2022-07-23T03:58:52;1017.2;;;22.8;53.5
45113;BME280;30873;53.908;27.576;2022-07-23T04:03:52;1017.2;;;22.9;53.2
45113;BME280;30873;53.908;27.576;2022-07-23T04:08:53;1017.2;;;23;53
45113;BME280;30873;53.908;27.576;2022-07-23T04:13:52;1017.2;;;23;53.1
45113;BME280;30873;53.908;27.576;2022-07-23T04:18:52;1017.2;;;23.1;52.9
45113;BME280;30873;53.908;27.576;2022-07-23T04:23:52;1017.1;;;23.2;52.8
45113;BME280;30873;53.908;27.576;2022-07-23T04:28:52;1017;;;23.3;52.6
45113;BME280;30873;53.908;27.576;2022-07-23T04:33:52;1016.9;;;23.4;52.2
45113;BME280;30873;53.908;27.576;2022-07-23T04:38:53;1016.9;;;23.7;51.9
45113;BME280;30873;53.908;27.576;2022-07-23T04:43:52;1016.9;;;23.8;51.5
45113;BME280;30873;53.908;27.576;2022-07-23T04:48:53;1017;;;23.9;51.6
45113;BME280;30873;53.908;27.576;2022-07-23T04:53:52;1016.9;;;24.1;51.3
45113;BME280;30873;53.908;27.576;2022-07-23T04:58:53;1016.9;;;24.2;51
45113;BME280;30873;53.908;27.576;2022-07-23T05:03:52;1016.9;;;24.5;50.7
45113;BME280;30873;53.908;27.576;2022-07-23T05:08:53;1016.9;;;24.7;50.2
45113;BME280;30873;53.908;27.576;2022-07-23T05:13:53;1017;;;24.8;50
45113;BME280;30873;53.908;27.576;2022-07-23T05:18:52;1017;;;24.8;50
45113;BME280;30873;53.908;27.576;2022-07-23T05:23:52;1016.9;;;25;49.8
45113;BME280;30873;53.908;27.576;2022-07-23T05:28:52;1016.9;;;25.1;49.5
45113;BME280;30873;53.908;27.576;2022-07-23T05:33:53;1016.9;;;25.3;49.3
45113;BME280;30873;53.908;27.576;2022-07-23T05:38:52;1016.9;;;25.4;49.4
45113;BME280;30873;53.908;27.576;2022-07-23T05:43:52;1016.9;;;25.6;48.9
45113;BME280;30873;53.908;27.576;2022-07-23T05:48:53;1016.9;;;25.7;48.4
45113;BME280;30873;53.908;27.576;2022-07-23T05:53:52;1016.9;;;25.8;48.2
45113;BME280;30873;53.908;27.576;2022-07-23T05:58:53;1016.9;;;26;48
45113;BME280;30873;53.908;27.576;2022-07-23T06:03:53;1016.8;;;26.2;47.8
45113;BME280;30873;53.908;27.576;2022-07-23T06:08:52;1016.8;;;26.5;47.4
45113;BME280;30873;53.908;27.576;2022-07-23T06:13:52;1016.8;;;26.5;47.2
45113;BME280;30873;53.908;27.576;2022-07-23T06:18:52;1016.8;;;26.7;47.4
45113;BME280;30873;53.908;27.576;2022-07-23T06:23:52;1016.8;;;26.8;47.1
45113;BME280;30873;53.908;27.576;2022-07-23T06:28:52;1016.7;;;27.1;46.8
45113;BME280;30873;53.908;27.576;2022-07-23T06:33:52;1016.6;;;27.3;46.6
45113;BME280;30873;53.908;27.576;2022-07-23T06:38:52;1016.6;;;27.7;46.1
45113;BME280;30873;53.908;27.576;2022-07-23T06:43:53;1016.6;;;27.8;45.9
45113;BME280;30873;53.908;27.576;2022-07-23T06:48:52;1016.6;;;28.1;45.7
45113;BME280;30873;53.908;27.576;2022-07-23T06:53:53;1016.6;;;28;45.5
45113;BME280;30873;53.908;27.576;2022-07-23T06:58:52;1016.6;;;28.1;45.8
45113;BME280;30873;53.908;27.576;2022-07-23T07:03:52;1016.6;;;28.4;45.6
45113;BME280;30873;53.908;27.576;2022-07-23T07:08:52;1016.6;;;28.7;45.3
45113;BME280;30873;53.908;27.576;2022-07-23T07:13:52;1016.6;;;28.9;44.7
45113;BME280;30873;53.908;27.576;2022-07-23T07:18:52;1016.6;;;29;44.3
45113;BME280;30873;53.908;27.576;2022-07-23T07:23:53;1016.6;;;29.3;43.5
45113;BME280;30873;53.908;27.576;2022-07-23T07:28:53;1016.6;;;29.4;43.7
45113;BME280;30873;53.908;27.576;2022-07-23T07:33:53;1016.6;;;29.4;43.2
45113;BME280;30873;53.908;27.576;2022-07-23T07:38:52;1016.6;;;29.2;42.9
45113;BME280;30873;53.908;27.576;2022-07-23T07:43:52;1016.6;;;29.2;43.1
45113;BME280;30873;53.908;27.576;2022-07-23T07:48:53;1016.6;;;29.3;43
45113;BME280;30873;53.908;27.576;2022-07-23T07:53:52;1016.6;;;29.5;42.9
45113;BME280;30873;53.908;27.576;2022-07-23T07:58:53;1016.6;;;29.9;41.8
45113;BME280;30873;53.908;27.576;2022-07-23T08:03:52;1016.6;;;29.7;42
45113;BME280;30873;53.908;27.576;2022-07-23T08:08:53;1016.6;;;29.9;41.7
45113;BME280;30873;53.908;27.576;2022-07-23T08:13:53;1016.6;;;30.1;41.2
45113;BME280;30873;53.908;27.576;2022-07-23T08:18:53;1016.6;;;30.2;41.1
45113;BME280;30873;53.908;27.576;2022-07-23T08:23:52;1016.6;;;30.6;40.6
45113;BME280;30873;53.908;27.576;2022-07-23T08:28:53;1016.6;;;30.5;40.1
45113;BME280;30873;53.908;27.576;2022-07-23T08:33:53;1016.6;;;30.7;40
45113;BME280;30873;53.908;27.576;2022-07-23T08:38:53;1016.6;;;30.7;39.6
45113;BME280;30873;53.908;27.576;2022-07-23T08:43:53;1016.6;;;30.7;39.6
45113;BME280;30873;53.908;27.576;2022-07-23T08:48:53;1016.5;;;30.8;39.6
45113;BME280;30873;53.908;27.576;2022-07-23T08:53:53;1016.4;;;31;39.1
45113;BME280;30873;53.908;27.576;2022-07-23T08:58:53;1016.3;;;31.6;38.6
45113;BME280;30873;53.908;27.576;2022-07-23T09:03:52;1016.3;;;32;38.1
45113;BME280;30873;53.908;27.576;2022-07-23T09:08:53;1016.2;;;32.3;37.4
45113;BME280;30873;53.908;27.576;2022-07-23T09:13:53;1016.3;;;32.5;37
45113;BME280;30873;53.908;27.576;2022-07-23T09:18:56;1016.3;;;32.6;36.9
45113;BME280;30873;53.908;27.576;2022-07-23T09:23:55;1016.2;;;32.5;36.8
45113;BME280;30873;53.908;27.576;2022-07-23T09:28:54;1016.2;;;32.8;36.6
45113;BME280;30873;53.908;27.576;2022-07-23T09:34:01;1016.2;;;33.2;36.1
45113;BME280;30873;53.908;27.576;2022-07-23T09:38:53;1016.2;;;33.6;35.3
45113;BME280;30873;53.908;27.576;2022-07-23T09:43:54;1016.2;;;33.4;35.5
45113;BME280;30873;53.908;27.576;2022-07-23T09:48:54;1016.1;;;33.7;35.2
45113;BME280;30873;53.908;27.576;2022-07-23T09:53:53;1016;;;34.8;33.8
45113;BME280;30873;53.908;27.576;2022-07-23T09:58:53;1016;;;35.5;32.5
45113;BME280;30873;53.908;27.576;2022-07-23T10:03:53;1016;;;35.3;32.7
45113;BME280;30873;53.908;27.576;2022-07-23T10:08:53;1015.9;;;36.2;31.5
45113;BME280;30873;53.908;27.576;2022-07-23T10:13:53;1015.9;;;37.1;30.2
45113;BME280;30873;53.908;27.576;2022-07-23T10:18:53;1015.9;;;37.6;29.4
45113;BME280;30873;53.908;27.576;2022-07-23T10:24:28;1015.9;;;36.3;30.8
45113;BME280;30873;53.908;27.576;2022-07-23T10:28:59;1015.8;;;36.8;30.4
45113;BME280;30873;53.908;27.576;2022-07-23T10:39:10;1015.8;;;36.5;30.7
45113;BME280;30873;53.908;27.576;2022-07-23T10:44:24;1015.7;;;35.5;32.2
45113;BME280;30873;53.908;27.576;2022-07-23T10:53:55;1015.6;;;37.2;30.3
45113;BME280;30873;53.908;27.576;2022-07-23T10:58:53;1015.6;;;38.4;28.9
45113;BME280;30873;53.908;27.576;2022-07-23T11:03:56;1015.5;;;39.4;27.6
45113;BME280;30873;53.908;27.576;2022-07-23T11:09:25;1015.5;;;40.5;26.2
45113;BME280;30873;53.908;27.576;2022-07-23T11:13:53;1015.5;;;39.5;27.1
45113;BME280;30873;53.908;27.576;2022-07-23T11:18:54;1015.5;;;38.9;27.7
45113;BME280;30873;53.908;27.576;2022-07-23T11:24:01;1015.5;;;38.1;28.7
45113;BME280;30873;53.908;27.576;2022-07-23T11:28:53;1015.5;;;37.4;29.4
45113;BME280;30873;53.908;27.576;2022-07-23T11:34:24;1015.4;;;39.4;27.3
45113;BME280;30873;53.908;27.576;2022-07-23T11:38:53;1015.4;;;40;26.4
45113;BME280;30873;53.908;27.576;2022-07-23T11:43:53;1015.4;;;38.8;27.7
45113;BME280;30873;53.908;27.576;2022-07-23T11:49:01;1015.3;;;40.1;26.4
45113;BME280;30873;53.908;27.576;2022-07-23T11:53:53;1015.3;;;40.9;25.4
45113;BME280;30873;53.908;27.576;2022-07-23T11:58:54;1015.2;;;41.8;24.4
45113;BME280;30873;53.908;27.576;2022-07-23T12:03:53;1015.2;;;40.4;25.9
45113;BME280;30873;53.908;27.576;2022-07-23T12:08:53;1015.2;;;38.5;28
45113;BME280;30873;53.908;27.576;2022-07-23T12:13:56;1015.2;;;38.7;28
45113;BME280;30873;53.908;27.576;2022-07-23T12:18:53;1015.2;;;38.1;28.5
45113;BME280;30873;53.908;27.576;2022-07-23T12:24:04;1015.2;;;36.5;30.6
45113;BME280;30873;53.908;27.576;2022-07-23T12:28:53;1015.1;;;37;30.1
45113;BME280;30873;53.908;27.576;2022-07-23T12:33:53;1015.1;;;36.8;30.1
45113;BME280;30873;53.908;27.576;2022-07-23T12:38:53;1015.1;;;35.9;31.5
45113;BME280;30873;53.908;27.576;2022-07-23T12:43:53;1015.1;;;36.2;31.3
45113;BME280;30873;53.908;27.576;2022-07-23T12:48:54;1015;;;37.2;30
45113;BME280;30873;53.908;27.576;2022-07-23T12:53:53;1015;;;37.3;29.8
45113;BME280;30873;53.908;27.576;2022-07-23T12:58:55;1015;;;36;31.5
45113;BME280;30873;53.908;27.576;2022-07-23T13:03:58;1014.9;;;36;31.8
45113;BME280;30873;53.908;27.576;2022-07-23T13:08:53;1014.9;;;37.1;30.4
45113;BME280;30873;53.908;27.576;2022-07-23T13:13:53;1014.9;;;37.8;29.5
45113;BME280;30873;53.908;27.576;2022-07-23T13:18:53;1014.9;;;39.5;27.8
45113;BME280;30873;53.908;27.576;2022-07-23T13:23:53;1014.9;;;39.2;27.5
45113;BME280;30873;53.908;27.576;2022-07-23T13:28:53;1014.8;;;39;27.7
45113;BME280;30873;53.908;27.576;2022-07-23T13:33:53;1014.7;;;39.9;27
45113;BME280;30873;53.908;27.576;2022-07-23T13:38:53;1014.7;;;41.2;25.5
45113;BME280;30873;53.908;27.576;2022-07-23T13:43:53;1014.7;;;41.2;25.4
45113;BME280;30873;53.908;27.576;2022-07-23T13:48:53;1014.6;;;42.6;24.1
45113;BME280;30873;53.908;27.576;2022-07-23T13:53:53;1014.6;;;42.6;23.9
45113;BME280;30873;53.908;27.576;2022-07-23T13:58:53;1014.5;;;43.4;23.1
45113;BME280;30873;53.908;27.576;2022-07-23T14:03:53;1014.5;;;44.2;22.3
45113;BME280;30873;53.908;27.576;2022-07-23T14:08:53;1014.5;;;44.2;22.2
45113;BME280;30873;53.908;27.576;2022-07-23T14:13:53;1014.5;;;43.1;23.1
45113;BME280;30873;53.908;27.576;2022-07-23T14:18:53;1014.6;;;41.8;24.5
45113;BME280;30873;53.908;27.576;2022-07-23T14:23:53;1014.5;;;40.5;25.8
45113;BME280;30873;53.908;27.576;2022-07-23T14:28:53;1014.5;;;40.2;26.4
45113;BME280;30873;53.908;27.576;2022-07-23T14:33:53;1014.4;;;39.2;27.4
45113;BME280;30873;53.908;27.576;2022-07-23T14:38:53;1014.3;;;39.1;27.8
45113;BME280;30873;53.908;27.576;2022-07-23T14:43:53;1014.3;;;41.7;25.1
45113;BME280;30873;53.908;27.576;2022-07-23T14:48:53;1014.1;;;43.2;23.7
45113;BME280;30873;53.908;27.576;2022-07-23T14:53:53;1014.1;;;43.9;23
45113;BME280;30873;53.908;27.576;2022-07-23T14:58:53;1014;;;44.7;22.2
45113;BME280;30873;53.908;27.576;2022-07-23T15:03:53;1014;;;45.3;21.7
45113;BME280;30873;53.908;27.576;2022-07-23T15:08:53;1013.9;;;44.7;22.1
45113;BME280;30873;53.908;27.576;2022-07-23T15:13:53;1014;;;44.7;22.1
45113;BME280;30873;53.908;27.576;2022-07-23T15:18:53;1013.9;;;44.5;22.2
45113;BME280;30873;53.908;27.576;2022-07-23T15:23:53;1014;;;43.8;22.5
45113;BME280;30873;53.908;27.576;2022-07-23T15:28:53;1013.9;;;41.9;24.6
45113;BME280;30873;53.908;27.576;2022-07-23T15:33:53;1013.9;;;42.3;24.3
45113;BME280;30873;53.908;27.576;2022-07-23T15:38:53;1013.9;;;42.3;24.3
45113;BME280;30873;53.908;27.576;2022-07-23T15:43:53;1013.7;;;42.9;23.9
45113;BME280;30873;53.908;27.576;2022-07-23T15:48:53;1013.7;;;42.1;24.8
45113;BME280;30873;53.908;27.576;2022-07-23T15:53:53;1013.7;;;42.7;24.3
45113;BME280;30873;53.908;27.576;2022-07-23T15:58:53;1013.6;;;43;24
45113;BME280;30873;53.908;27.576;2022-07-23T16:03:53;1013.6;;;42.9;24.1
45113;BME280;30873;53.908;27.576;2022-07-23T16:08:53;1013.6;;;42.7;24.2
45113;BME280;30873;53.908;27.576;2022-07-23T16:13:53;1013.6;;;41;26.2
45113;BME280;30873;53.908;27.576;2022-07-23T16:18:53;1013.6;;;38.8;28.8
45113;BME280;30873;53.908;27.576;2022-07-23T16:23:53;1013.6;;;39.4;28.1
45113;BME280;30873;53.908;27.576;2022-07-23T16:28:53;1013.6;;;38.4;29.2
45113;BME280;30873;53.908;27.576;2022-07-23T16:33:53;1013.7;;;36.9;31.3
45113;BME280;30873;53.908;27.576;2022-07-23T16:38:53;1013.7;;;35.2;34.1
45113;BME280;30873;53.908;27.576;2022-07-23T16:43:53;1013.6;;;34.4;35.6
45113;BME280;30873;53.908;27.576;2022-07-23T16:48:53;1013.7;;;34;36.6
45113;BME280;30873;53.908;27.576;2022-07-23T16:53:53;1013.7;;;33.6;37.3
45113;BME280;30873;53.908;27.576;2022-07-23T16:58:53;1013.7;;;33.3;38.1
45113;BME280;30873;53.908;27.576;2022-07-23T17:03:53;1013.7;;;33.3;38.5
45113;BME280;30873;53.908;27.576;2022-07-23T17:08:53;1013.7;;;34.1;37.3
45113;BME280;30873;53.908;27.576;2022-07-23T17:13:53;1013.7;;;33.8;37.6
45113;BME280;30873;53.908;27.576;2022-07-23T17:18:53;1013.7;;;33.2;38.9
45113;BME280;30873;53.908;27.576;2022-07-23T17:23:53;1013.7;;;32.8;39.6
45113;BME280;30873;53.908;27.576;2022-07-23T17:28:53;1013.7;;;32.8;39.5
45113;BME280;30873;53.908;27.576;2022-07-23T17:33:53;1013.7;;;32.2;40.6
45113;BME280;30873;53.908;27.576;2022-07-23T17:38:53;1013.7;;;31.7;41.8
45113;BME280;30873;53.908;27.576;2022-07-23T17:43:53;1013.7;;;31.4;42.6
45113;BME280;30873;53.908;27.576;2022-07-23T17:48:53;1013.7;;;31.6;42.7
45113;BME280;30873;53.908;27.576;2022-07-23T17:53:53;1013.7;;;31.8;42.5
45113;BME280;30873;53.908;27.576;2022-07-23T17:58:53;1013.6;;;31.9;42.2
45113;BME280;30873;53.908;27.576;2022-07-23T18:03:53;1013.7;;;31.9;42.3
45113;BME280;30873;53.908;27.576;2022-07-23T18:08:53;1013.7;;;31.6;42.8
45113;BME280;30873;53.908;27.576;2022-07-23T18:13:53;1013.7;;;31.1;44.1
45113;BME280;30873;53.908;27.576;2022-07-23T18:18:53;1013.7;;;30.8;45
45113;BME280;30873;53.908;27.576;2022-07-23T18:23:53;1013.8;;;30.6;45.7
45113;BME280;30873;53.908;27.576;2022-07-23T18:28:53;1013.8;;;30.4;46.4
45113;BME280;30873;53.908;27.576;2022-07-23T18:33:53;1013.8;;;30.2;47.1
45113;BME280;30873;53.908;27.576;2022-07-23T18:38:53;1013.7;;;30;47.7
45113;BME280;30873;53.908;27.576;2022-07-23T18:43:53;1013.7;;;29.8;48.3
45113;BME280;30873;53.908;27.576;2022-07-23T18:48:53;1013.8;;;29.7;48.9
45113;BME280;30873;53.908;27.576;2022-07-23T18:53:53;1013.8;;;29.5;49.6
45113;BME280;30873;53.908;27.576;2022-07-23T18:58:53;1013.9;;;29.3;50.1
45113;BME280;30873;53.908;27.576;2022-07-23T19:03:53;1013.9;;;29.2;50.5
45113;BME280;30873;53.908;27.576;2022-07-23T19:08:53;1013.9;;;29.1;50.8
45113;BME280;30873;53.908;27.576;2022-07-23T19:13:53;1014;;;28.9;51.4
45113;BME280;30873;53.908;27.576;2022-07-23T19:18:53;1014;;;28.7;51.8
45113;BME280;30873;53.908;27.576;2022-07-23T19:23:53;1014;;;28.7;52.1
45113;BME280;30873;53.908;27.576;2022-07-23T19:28:53;1014;;;28.6;52.6
45113;BME280;30873;53.908;27.576;2022-07-23T19:33:53;1014;;;28.4;53
45113;BME280;30873;53.908;27.576;2022-07-23T19:38:53;1014;;;28.3;53.4
45113;BME280;30873;53.908;27.576;2022-07-23T19:43:53;1013.9;;;28.1;53.8
45113;BME280;30873;53.908;27.576;2022-07-23T19:48:53;1013.9;;;28;54.1
45113;BME280;30873;53.908;27.576;2022-07-23T19:53:53;1013.9;;;28;54.3
45113;BME280;30873;53.908;27.576;2022-07-23T19:58:53;1014;;;27.9;54.6
45113;BME280;30873;53.908;27.576;2022-07-23T20:03:53;1014.1;;;27.8;54.8
45113;BME280;30873;53.908;27.576;2022-07-23T20:08:53;1014.2;;;27.6;55.3
45113;BME280;30873;53.908;27.576;2022-07-23T20:13:53;1014.3;;;27.6;55.5
45113;BME280;30873;53.908;27.576;2022-07-23T20:18:53;1014.4;;;27.6;55.7
45113;BME280;30873;53.908;27.576;2022-07-23T20:23:53;1014.4;;;27.6;56
45113;BME280;30873;53.908;27.576;2022-07-23T20:28:53;1014.4;;;27.6;56.1
45113;BME280;30873;53.908;27.576;2022-07-23T20:33:53;1014.4;;;27.5;56.4
45113;BME280;30873;53.908;27.576;2022-07-23T20:38:53;1014.4;;;27.5;56.7
45113;BME280;30873;53.908;27.576;2022-07-23T20:43:53;1014.3;;;27.4;57.1
45113;BME280;30873;53.908;27.576;2022-07-23T20:48:53;1014.3;;;27.3;57.4
45113;BME280;30873;53.908;27.576;2022-07-23T20:53:53;1014.3;;;27.2;57.8
45113;BME280;30873;53.908;27.576;2022-07-23T20:58:53;1014.3;;;27.1;58.3
45113;BME280;30873;53.908;27.576;2022-07-23T21:03:53;1014.2;;;26.9;58.8
45113;BME280;30873;53.908;27.576;2022-07-23T21:08:53;1014.2;;;26.7;59.5
45113;BME280;30873;53.908;27.576;2022-07-23T21:13:53;1014.2;;;26.5;60.1
45113;BME280;30873;53.908;27.576;2022-07-23T21:18:53;1014.2;;;26.5;60
45113;BME280;30873;53.908;27.576;2022-07-23T21:23:53;1014.2;;;26.5;60.2
45113;BME280;30873;53.908;27.576;2022-07-23T21:28:53;1014.2;;;26.5;60.4
45113;BME280;30873;53.908;27.576;2022-07-23T21:33:53;1014.1;;;26.4;60.2
45113;BME280;30873;53.908;27.576;2022-07-23T21:38:53;1014;;;26.4;60.5
45113;BME280;30873;53.908;27.576;2022-07-23T21:43:53;1013.8;;;26.3;60.8
45113;BME280;30873;53.908;27.576;2022-07-23T21:48:53;1013.8;;;26.3;60.9
45113;BME280;30873;53.908;27.576;2022-07-23T21:53:53;1013.9;;;26.2;61.2
45113;BME280;30873;53.908;27.576;2022-07-23T21:58:53;1014;;;26.1;61.7
45113;BME280;30873;53.908;27.576;2022-07-23T22:03:53;1013.8;;;26;62.1
45113;BME280;30873;53.908;27.576;2022-07-23T22:08:53;1013.7;;;25.9;62.5
45113;BME280;30873;53.908;27.576;2022-07-23T22:13:53;1013.8;;;25.9;62.6
45113;BME280;30873;53.908;27.576;2022-07-23T22:18:53;1013.9;;;25.7;63.3
45113;BME280;30873;53.908;27.576;2022-07-23T22:23:53;1013.8;;;25.6;63.7
45113;BME280;30873;53.908;27.576;2022-07-23T22:28:53;1013.8;;;25.6;63.7
45113;BME280;30873;53.908;27.576;2022-07-23T22:33:53;1013.8;;;25.6;63.8
45113;BME280;30873;53.908;27.576;2022-07-23T22:38:53;1013.7;;;25.7;63.8
45113;BME280;30873;53.908;27.576;2022-07-23T22:43:53;1013.6;;;25.7;63.5
45113;BME280;30873;53.908;27.576;2022-07-23T22:48:53;1013.5;;;25.7;63.7
45113;BME280;30873;53.908;27.576;2022-07-23T22:53:53;1013.4;;;25.6;63.8
45113;BME280;30873;53.908;27.576;2022-07-23T22:58:53;1013.2;;;25.7;63.5
45113;BME280;30873;53.908;27.576;2022-07-23T23:03:53;1013.1;;;25.6;63.8
45113;BME280;30873;53.908;27.576;2022-07-23T23:08:53;1013.2;;;25.4;64.2
45113;BME280;30873;53.908;27.576;2022-07-23T23:13:53;1013.4;;;25.2;64.8
45113;BME280;30873;53.908;27.576;2022-07-23T23:18:53;1013.5;;;25.2;64.9
45113;BME280;30873;53.908;27.576;2022-07-23T23:23:53;1013.5;;;25.2;65.1
45113;BME280;30873;53.908;27.576;2022-07-23T23:28:53;1013.3;;;25.2;65.4
45113;BME280;30873;53.908;27.576;2022-07-23T23:33:53;1013.2;;;25.1;65.5
45113;BME280;30873;53.908;27.576;2022-07-23T23:38:53;1013.1;;;25.1;65.5
45113;BME280;30873;53.908;27.576;2022-07-23T23:43:53;1013.1;;;25.1;65.5
45113;BME280;30873;53.908;27.576;2022-07-23T23:48:53;1013;;;25.1;65.5
45113;BME280;30873;53.908;27.576;2022-07-23T23:53:53;1013.1;;;25.2;65.4
45113;BME280;30873;53.908;27.576;2022-07-23T23:58:53;1013.1;;;25;65.7
